sensor_id;sensor_type;location;lat;lon;timestamp;P1;durP1;ratioP1;P2;durP2;ratioP2
64595;SDS011;51003;51.628;6.670;2023-02-28T07:31:35;14.02;;;5.28;;
64595;SDS011;51003;51.628;6.670;2023-02-28T08:39:07;6.90;;;3.42;;
64595;SDS011;51003;51.628;6.670;2023-02-28T08:44:55;3.28;;;2.97;;
64595;SDS011;51003;51.628;6.670;2023-02-28T08:47:21;6.93;;;3.37;;
64595;SDS011;51003;51.628;6.670;2023-02-28T08:49:46;5.67;;;3.27;;
64595;SDS011;51003;51.628;6.670;2023-02-28T08:52:12;3.60;;;3.30;;
64595;SDS011;51003;51.628;6.670;2023-02-28T08:54:37;6.10;;;3.50;;
64595;SDS011;51003;51.628;6.670;2023-02-28T08:57:03;4.53;;;3.80;;
64595;SDS011;51003;51.628;6.670;2023-02-28T08:59:28;3.40;;;3.03;;
64595;SDS011;51003;51.628;6.670;2023-02-28T09:01:54;4.30;;;3.20;;
64595;SDS011;51003;51.628;6.670;2023-02-28T09:04:19;4.70;;;3.00;;
64595;SDS011;51003;51.628;6.670;2023-02-28T09:06:45;3.77;;;2.80;;
64595;SDS011;51003;51.628;6.670;2023-02-28T09:09:11;3.80;;;3.07;;
64595;SDS011;51003;51.628;6.670;2023-02-28T09:11:36;5.27;;;4.00;;
64595;SDS011;51003;51.628;6.670;2023-02-28T09:14:02;5.07;;;3.50;;
64595;SDS011;51003;51.628;6.670;2023-02-28T09:26:51;5.10;;;2.63;;
64595;SDS011;51003;51.628;6.670;2023-02-28T09:32:43;12.60;;;6.80;;
64595;SDS011;51003;51.628;6.670;2023-02-28T09:35:24;9.23;;;5.27;;
64595;SDS011;51003;51.628;6.670;2023-02-28T09:37:50;18.90;;;9.07;;
64595;SDS011;51003;51.628;6.670;2023-02-28T09:40:20;8.50;;;5.47;;
64595;SDS011;51003;51.628;6.670;2023-02-28T10:27:45;3.30;;;3.00;;
64595;SDS011;51003;51.628;6.670;2023-02-28T10:33:34;2.60;;;2.40;;
64595;SDS011;51003;51.628;6.670;2023-02-28T10:42:18;4.47;;;2.60;;
64595;SDS011;51003;51.628;6.670;2023-02-28T10:45:14;2.27;;;2.10;;
64595;SDS011;51003;51.628;6.670;2023-02-28T10:47:54;2.40;;;2.27;;
64595;SDS011;51003;51.628;6.670;2023-02-28T10:56:23;2.47;;;2.20;;
64595;SDS011;51003;51.628;6.670;2023-02-28T11:01:50;2.57;;;2.37;;
64595;SDS011;51003;51.628;6.670;2023-02-28T11:06:44;3.10;;;2.90;;
64595;SDS011;51003;51.628;6.670;2023-02-28T11:09:22;2.73;;;2.30;;
64595;SDS011;51003;51.628;6.670;2023-02-28T11:11:59;5.23;;;2.90;;
64595;SDS011;51003;51.628;6.670;2023-02-28T11:14:46;3.97;;;3.10;;
64595;SDS011;51003;51.628;6.670;2023-02-28T11:17:15;2.70;;;2.50;;
64595;SDS011;51003;51.628;6.670;2023-02-28T11:20:21;3.60;;;2.50;;
64595;SDS011;51003;51.628;6.670;2023-02-28T11:47:47;4.50;;;3.50;;
64595;SDS011;51003;51.628;6.670;2023-02-28T12:52:01;4.83;;;3.03;;
64595;SDS011;51003;51.628;6.670;2023-02-28T13:51:44;6.70;;;3.30;;
64595;SDS011;51003;51.628;6.670;2023-02-28T14:06:57;4.63;;;2.93;;
64595;SDS011;51003;51.628;6.670;2023-02-28T14:09:11;4.93;;;3.20;;
64595;SDS011;51003;51.628;6.670;2023-02-28T14:11:56;3.47;;;3.17;;
64595;SDS011;51003;51.628;6.670;2023-02-28T14:17:05;2.80;;;2.60;;
64595;SDS011;51003;51.628;6.670;2023-02-28T14:19:32;3.40;;;3.20;;
64595;SDS011;51003;51.628;6.670;2023-02-28T14:28:13;3.43;;;2.90;;
64595;SDS011;51003;51.628;6.670;2023-02-28T14:31:09;3.23;;;3.00;;
64595;SDS011;51003;51.628;6.670;2023-02-28T14:38:52;2.80;;;2.60;;
64595;SDS011;51003;51.628;6.670;2023-02-28T14:41:37;4.13;;;3.00;;
64595;SDS011;51003;51.628;6.670;2023-02-28T14:46:55;3.57;;;3.30;;
64595;SDS011;51003;51.628;6.670;2023-02-28T14:49:29;3.60;;;3.30;;
64595;SDS011;51003;51.628;6.670;2023-02-28T14:54:56;3.87;;;3.30;;
64595;SDS011;51003;51.628;6.670;2023-02-28T14:57:27;3.00;;;2.80;;
64595;SDS011;51003;51.628;6.670;2023-02-28T15:00:40;3.00;;;2.70;;
64595;SDS011;51003;51.628;6.670;2023-02-28T15:02:46;3.33;;;3.03;;
64595;SDS011;51003;51.628;6.670;2023-02-28T15:07:43;4.00;;;3.00;;
64595;SDS011;51003;51.628;6.670;2023-02-28T15:10:23;2.90;;;2.70;;
64595;SDS011;51003;51.628;6.670;2023-02-28T15:13:00;3.10;;;2.90;;
64595;SDS011;51003;51.628;6.670;2023-02-28T15:15:44;3.70;;;2.90;;
64595;SDS011;51003;51.628;6.670;2023-02-28T15:18:14;3.80;;;3.27;;
64595;SDS011;51003;51.628;6.670;2023-02-28T15:20:43;5.27;;;3.27;;
64595;SDS011;51003;51.628;6.670;2023-02-28T15:23:09;3.70;;;3.00;;
64595;SDS011;51003;51.628;6.670;2023-02-28T15:25:34;3.80;;;2.90;;
64595;SDS011;51003;51.628;6.670;2023-02-28T15:28:00;3.93;;;3.60;;
64595;SDS011;51003;51.628;6.670;2023-02-28T15:30:26;3.70;;;3.40;;
64595;SDS011;51003;51.628;6.670;2023-02-28T15:35:48;3.43;;;3.13;;
64595;SDS011;51003;51.628;6.670;2023-02-28T15:38:18;3.03;;;2.83;;
64595;SDS011;51003;51.628;6.670;2023-02-28T15:40:51;3.67;;;3.37;;
64595;SDS011;51003;51.628;6.670;2023-02-28T15:46:01;3.53;;;3.23;;
64595;SDS011;51003;51.628;6.670;2023-02-28T15:49:12;3.33;;;3.10;;
64595;SDS011;51003;51.628;6.670;2023-02-28T15:51:23;3.90;;;3.60;;
64595;SDS011;51003;51.628;6.670;2023-02-28T15:53:52;5.33;;;3.63;;
64595;SDS011;51003;51.628;6.670;2023-02-28T15:56:46;4.40;;;3.30;;
64595;SDS011;51003;51.628;6.670;2023-02-28T15:59:20;3.90;;;3.60;;
64595;SDS011;51003;51.628;6.670;2023-02-28T16:01:47;3.43;;;3.23;;
64595;SDS011;51003;51.628;6.670;2023-02-28T16:04:14;3.63;;;3.33;;
64595;SDS011;51003;51.628;6.670;2023-02-28T16:09:25;3.80;;;3.50;;
64595;SDS011;51003;51.628;6.670;2023-02-28T16:11:52;7.10;;;3.43;;
64595;SDS011;51003;51.628;6.670;2023-02-28T16:14:23;3.70;;;3.40;;
64595;SDS011;51003;51.628;6.670;2023-02-28T16:16:53;3.60;;;3.30;;
64595;SDS011;51003;51.628;6.670;2023-02-28T16:19:19;3.60;;;3.30;;
64595;SDS011;51003;51.628;6.670;2023-02-28T16:21:47;4.10;;;3.70;;
64595;SDS011;51003;51.628;6.670;2023-02-28T16:24:12;4.77;;;4.20;;
64595;SDS011;51003;51.628;6.670;2023-02-28T16:26:41;6.20;;;3.60;;
64595;SDS011;51003;51.628;6.670;2023-02-28T16:29:13;4.90;;;4.00;;
64595;SDS011;51003;51.628;6.670;2023-02-28T16:31:50;6.30;;;3.90;;
64595;SDS011;51003;51.628;6.670;2023-02-28T16:34:15;4.33;;;3.63;;
64595;SDS011;51003;51.628;6.670;2023-02-28T16:36:41;5.80;;;4.30;;
64595;SDS011;51003;51.628;6.670;2023-02-28T16:39:06;3.83;;;3.50;;
64595;SDS011;51003;51.628;6.670;2023-02-28T16:41:32;4.00;;;3.70;;
64595;SDS011;51003;51.628;6.670;2023-02-28T16:43:58;6.00;;;3.40;;
64595;SDS011;51003;51.628;6.670;2023-02-28T16:46:32;5.17;;;3.67;;
64595;SDS011;51003;51.628;6.670;2023-02-28T16:48:59;4.10;;;3.70;;
64595;SDS011;51003;51.628;6.670;2023-02-28T16:51:24;4.27;;;3.87;;
64595;SDS011;51003;51.628;6.670;2023-02-28T16:53:49;12.37;;;4.10;;
64595;SDS011;51003;51.628;6.670;2023-02-28T16:56:19;4.23;;;3.83;;
64595;SDS011;51003;51.628;6.670;2023-02-28T16:58:46;5.90;;;4.40;;
64595;SDS011;51003;51.628;6.670;2023-02-28T17:01:13;7.93;;;4.80;;
64595;SDS011;51003;51.628;6.670;2023-02-28T17:03:38;7.17;;;5.10;;
64595;SDS011;51003;51.628;6.670;2023-02-28T17:06:05;5.53;;;4.60;;
64595;SDS011;51003;51.628;6.670;2023-02-28T17:08:31;4.33;;;3.90;;
64595;SDS011;51003;51.628;6.670;2023-02-28T17:10:57;5.93;;;4.73;;
64595;SDS011;51003;51.628;6.670;2023-02-28T17:13:23;11.80;;;7.20;;
64595;SDS011;51003;51.628;6.670;2023-02-28T17:15:48;14.07;;;8.37;;
64595;SDS011;51003;51.628;6.670;2023-02-28T17:18:15;9.00;;;6.50;;
64595;SDS011;51003;51.628;6.670;2023-02-28T17:20:44;8.13;;;5.43;;
64595;SDS011;51003;51.628;6.670;2023-02-28T17:23:10;6.23;;;5.13;;
64595;SDS011;51003;51.628;6.670;2023-02-28T17:25:35;5.00;;;4.40;;
64595;SDS011;51003;51.628;6.670;2023-02-28T17:28:00;5.33;;;4.83;;
64595;SDS011;51003;51.628;6.670;2023-02-28T17:30:27;5.17;;;4.67;;
64595;SDS011;51003;51.628;6.670;2023-02-28T17:32:53;10.23;;;4.90;;
64595;SDS011;51003;51.628;6.670;2023-02-28T17:35:22;5.70;;;4.37;;
64595;SDS011;51003;51.628;6.670;2023-02-28T17:37:48;5.10;;;4.50;;
64595;SDS011;51003;51.628;6.670;2023-02-28T17:40:14;4.17;;;3.77;;
64595;SDS011;51003;51.628;6.670;2023-02-28T17:42:41;4.73;;;4.20;;
64595;SDS011;51003;51.628;6.670;2023-02-28T17:45:06;5.73;;;4.13;;
64595;SDS011;51003;51.628;6.670;2023-02-28T17:47:32;5.60;;;4.50;;
64595;SDS011;51003;51.628;6.670;2023-02-28T17:49:58;7.17;;;5.20;;
64595;SDS011;51003;51.628;6.670;2023-02-28T17:52:23;7.53;;;5.33;;
64595;SDS011;51003;51.628;6.670;2023-02-28T17:54:49;8.93;;;6.13;;
64595;SDS011;51003;51.628;6.670;2023-02-28T17:57:15;10.73;;;7.20;;
64595;SDS011;51003;51.628;6.670;2023-02-28T17:59:41;12.77;;;7.57;;
64595;SDS011;51003;51.628;6.670;2023-02-28T18:02:07;12.00;;;7.40;;
64595;SDS011;51003;51.628;6.670;2023-02-28T18:04:34;13.10;;;7.50;;
64595;SDS011;51003;51.628;6.670;2023-02-28T18:34:23;7.80;;;5.07;;
64595;SDS011;51003;51.628;6.670;2023-02-28T19:50:37;27.13;;;14.37;;
64595;SDS011;51003;51.628;6.670;2023-02-28T20:06:30;15.33;;;9.10;;
64595;SDS011;51003;51.628;6.670;2023-02-28T20:18:03;12.57;;;7.87;;
64595;SDS011;51003;51.628;6.670;2023-02-28T20:20:29;16.17;;;8.10;;
64595;SDS011;51003;51.628;6.670;2023-02-28T20:22:54;12.17;;;7.97;;
64595;SDS011;51003;51.628;6.670;2023-02-28T20:25:20;12.37;;;7.80;;
64595;SDS011;51003;51.628;6.670;2023-02-28T20:27:47;12.77;;;8.33;;
64595;SDS011;51003;51.628;6.670;2023-02-28T20:30:13;12.27;;;8.17;;
64595;SDS011;51003;51.628;6.670;2023-02-28T20:32:38;13.00;;;8.73;;
64595;SDS011;51003;51.628;6.670;2023-02-28T20:35:05;18.10;;;9.43;;
64595;SDS011;51003;51.628;6.670;2023-02-28T20:37:35;13.17;;;8.23;;
64595;SDS011;51003;51.628;6.670;2023-02-28T20:40:00;12.83;;;8.10;;
64595;SDS011;51003;51.628;6.670;2023-02-28T20:42:28;10.40;;;6.60;;
64595;SDS011;51003;51.628;6.670;2023-02-28T20:44:54;8.10;;;6.50;;
64595;SDS011;51003;51.628;6.670;2023-02-28T20:47:20;10.10;;;6.80;;
64595;SDS011;51003;51.628;6.670;2023-02-28T20:49:46;8.10;;;5.80;;
64595;SDS011;51003;51.628;6.670;2023-02-28T20:52:12;7.43;;;5.27;;
64595;SDS011;51003;51.628;6.670;2023-02-28T21:14:32;7.00;;;5.47;;
